sensor_id;sensor_type;location;lat;lon;timestamp;pressure;altitude;pressure_sealevel;temperature;humidity
29433;BME280;16405;53.964;13.448;2022-11-11T00:01:22;102084.22;;;12.46;87.25
29433;BME280;16405;53.964;13.448;2022-11-11T00:03:47;102086.78;;;12.48;87.11
29433;BME280;16405;53.964;13.448;2022-11-11T00:06:21;102080.75;;;12.44;87.73
29433;BME280;16405;53.964;13.448;2022-11-11T00:08:48;102084.13;;;12.48;87.04
29433;BME280;16405;53.964;13.448;2022-11-11T00:11:14;102078.16;;;12.43;87.43
29433;BME280;16405;53.964;13.448;2022-11-11T00:13:49;102086.09;;;12.43;87.39
29433;BME280;16405;53.964;13.448;2022-11-11T00:16:17;102090.44;;;12.44;87.79
29433;BME280;16405;53.964;13.448;2022-11-11T00:18:51;102079.13;;;12.40;87.20
29433;BME280;16405;53.964;13.448;2022-11-11T00:21:36;102072.91;;;12.41;87.62
29433;BME280;16405;53.964;13.448;2022-11-11T00:27:11;102081.84;;;12.37;87.74
29433;BME280;16405;53.964;13.448;2022-11-11T00:29:38;102083.63;;;12.37;87.09
29433;BME280;16405;53.964;13.448;2022-11-11T00:32:13;102081.78;;;12.40;87.04
29433;BME280;16405;53.964;13.448;2022-11-11T00:34:55;102085.31;;;12.39;87.14
29433;BME280;16405;53.964;13.448;2022-11-11T00:37:45;102081.78;;;12.40;87.22
29433;BME280;16405;53.964;13.448;2022-11-11T00:40:12;102077.53;;;12.35;86.93
29433;BME280;16405;53.964;13.448;2022-11-11T00:42:40;102086.97;;;12.42;86.89
29433;BME280;16405;53.964;13.448;2022-11-11T00:45:07;102094.97;;;12.40;86.90
29433;BME280;16405;53.964;13.448;2022-11-11T00:47:42;102106.56;;;12.36;86.33
29433;BME280;16405;53.964;13.448;2022-11-11T00:50:28;102097.78;;;12.36;86.40
29433;BME280;16405;53.964;13.448;2022-11-11T00:53:20;102101.28;;;12.36;86.15
29433;BME280;16405;53.964;13.448;2022-11-11T00:55:47;102099.44;;;12.38;86.58
29433;BME280;16405;53.964;13.448;2022-11-11T00:58:18;102118.63;;;12.43;86.00
29433;BME280;16405;53.964;13.448;2022-11-11T01:00:44;102103.66;;;12.44;86.15
29433;BME280;16405;53.964;13.448;2022-11-11T01:03:10;102107.34;;;12.40;86.24
29433;BME280;16405;53.964;13.448;2022-11-11T01:05:37;102098.50;;;12.39;86.19
29433;BME280;16405;53.964;13.448;2022-11-11T01:08:03;102103.88;;;12.38;86.64
29433;BME280;16405;53.964;13.448;2022-11-11T01:10:36;102112.81;;;12.34;86.38
29433;BME280;16405;53.964;13.448;2022-11-11T01:13:13;102120.72;;;12.34;86.04
29433;BME280;16405;53.964;13.448;2022-11-11T01:15:41;102129.50;;;12.34;86.70
29433;BME280;16405;53.964;13.448;2022-11-11T01:18:13;102127.88;;;12.30;86.21
29433;BME280;16405;53.964;13.448;2022-11-11T01:20:45;102120.94;;;12.26;86.21
29433;BME280;16405;53.964;13.448;2022-11-11T01:23:13;102116.59;;;12.25;86.59
29433;BME280;16405;53.964;13.448;2022-11-11T01:25:45;102115.78;;;12.23;86.58
29433;BME280;16405;53.964;13.448;2022-11-11T01:28:12;102119.44;;;12.19;86.75
29433;BME280;16405;53.964;13.448;2022-11-11T01:30:37;102112.50;;;12.15;86.62
29433;BME280;16405;53.964;13.448;2022-11-11T01:33:03;102126.56;;;12.15;87.51
29433;BME280;16405;53.964;13.448;2022-11-11T01:35:29;102132.78;;;12.14;87.07
29433;BME280;16405;53.964;13.448;2022-11-11T01:37:57;102138.81;;;12.18;87.38
29433;BME280;16405;53.964;13.448;2022-11-11T01:40:29;102135.44;;;12.13;87.50
29433;BME280;16405;53.964;13.448;2022-11-11T01:46:02;102121.47;;;12.09;87.19
29433;BME280;16405;53.964;13.448;2022-11-11T01:48:44;102125.06;;;12.06;87.13
29433;BME280;16405;53.964;13.448;2022-11-11T01:54:40;102129.69;;;12.00;87.67
29433;BME280;16405;53.964;13.448;2022-11-11T01:57:18;102132.28;;;12.01;87.69
29433;BME280;16405;53.964;13.448;2022-11-11T02:00:00;102128.81;;;11.99;87.35
29433;BME280;16405;53.964;13.448;2022-11-11T02:02:51;102136.75;;;11.99;87.29
29433;BME280;16405;53.964;13.448;2022-11-11T02:05:20;102138.47;;;12.00;86.88
29433;BME280;16405;53.964;13.448;2022-11-11T02:08:17;102139.41;;;11.98;87.28
29433;BME280;16405;53.964;13.448;2022-11-11T02:11:15;102147.44;;;11.95;87.45
29433;BME280;16405;53.964;13.448;2022-11-11T02:14:02;102142.09;;;11.96;87.73
29433;BME280;16405;53.964;13.448;2022-11-11T02:16:47;102134.19;;;11.96;87.52
29433;BME280;16405;53.964;13.448;2022-11-11T02:19:16;102130.69;;;11.96;86.92
29433;BME280;16405;53.964;13.448;2022-11-11T02:21:55;102129.81;;;11.95;87.06
29433;BME280;16405;53.964;13.448;2022-11-11T02:24:26;102113.19;;;11.92;87.09
29433;BME280;16405;53.964;13.448;2022-11-11T02:26:55;102093.97;;;11.88;87.29
29433;BME280;16405;53.964;13.448;2022-11-11T02:29:22;102101.91;;;11.86;87.38
29433;BME280;16405;53.964;13.448;2022-11-11T02:31:52;102090.59;;;11.81;87.73
29433;BME280;16405;53.964;13.448;2022-11-11T02:34:37;102073.19;;;11.76;87.60
29433;BME280;16405;53.964;13.448;2022-11-11T02:37:05;102074.91;;;11.77;87.70
29433;BME280;16405;53.964;13.448;2022-11-11T02:39:40;102081.25;;;11.71;87.71
29433;BME280;16405;53.964;13.448;2022-11-11T02:42:07;102099.66;;;11.73;87.26
29433;BME280;16405;53.964;13.448;2022-11-11T02:44:36;102108.38;;;11.75;87.68
29433;BME280;16405;53.964;13.448;2022-11-11T02:47:07;102098.78;;;11.72;87.74
29433;BME280;16405;53.964;13.448;2022-11-11T02:49:33;102087.50;;;11.68;88.12
29433;BME280;16405;53.964;13.448;2022-11-11T02:51:59;102085.75;;;11.67;87.69
29433;BME280;16405;53.964;13.448;2022-11-11T02:54:24;102082.25;;;11.67;87.75
29433;BME280;16405;53.964;13.448;2022-11-11T02:56:50;102101.59;;;11.66;87.80
29433;BME280;16405;53.964;13.448;2022-11-11T02:59:34;102112.06;;;11.70;87.78
29433;BME280;16405;53.964;13.448;2022-11-11T03:02:04;102103.38;;;11.65;87.78
29433;BME280;16405;53.964;13.448;2022-11-11T03:04:30;102103.38;;;11.65;87.49
29433;BME280;16405;53.964;13.448;2022-11-11T03:06:56;102108.69;;;11.64;87.65
29433;BME280;16405;53.964;13.448;2022-11-11T03:09:22;102108.66;;;11.65;87.99
29433;BME280;16405;53.964;13.448;2022-11-11T03:11:56;102099.94;;;11.63;88.08
29433;BME280;16405;53.964;13.448;2022-11-11T03:14:22;102106.16;;;11.61;87.38
29433;BME280;16405;53.964;13.448;2022-11-11T03:16:48;102110.53;;;11.62;87.56
29433;BME280;16405;53.964;13.448;2022-11-11T03:19:37;102110.59;;;11.60;87.83
29433;BME280;16405;53.964;13.448;2022-11-11T03:22:03;102112.41;;;11.58;87.69
29433;BME280;16405;53.964;13.448;2022-11-11T03:24:29;102111.47;;;11.59;87.74
29433;BME280;16405;53.964;13.448;2022-11-11T03:27:14;102123.03;;;11.55;87.60
29433;BME280;16405;53.964;13.448;2022-11-11T03:29:49;102130.91;;;11.57;88.16
29433;BME280;16405;53.964;13.448;2022-11-11T03:32:15;102131.84;;;11.54;87.85
29433;BME280;16405;53.964;13.448;2022-11-11T03:34:40;102130.09;;;11.55;88.06
29433;BME280;16405;53.964;13.448;2022-11-11T03:37:17;102135.31;;;11.56;88.23
29433;BME280;16405;53.964;13.448;2022-11-11T03:40:02;102138.94;;;11.52;88.08
29433;BME280;16405;53.964;13.448;2022-11-11T03:42:28;102137.16;;;11.53;88.19
29433;BME280;16405;53.964;13.448;2022-11-11T03:45:01;102143.50;;;11.47;87.58
29433;BME280;16405;53.964;13.448;2022-11-11T03:47:27;102134.63;;;11.49;88.53
29433;BME280;16405;53.964;13.448;2022-11-11T03:49:53;102135.53;;;11.48;88.37
29433;BME280;16405;53.964;13.448;2022-11-11T03:52:19;102125.84;;;11.49;87.86
29433;BME280;16405;53.964;13.448;2022-11-11T03:54:50;102117.16;;;11.45;88.17
29433;BME280;16405;53.964;13.448;2022-11-11T03:57:16;102111.03;;;11.45;88.31
29433;BME280;16405;53.964;13.448;2022-11-11T03:59:57;102102.31;;;11.41;88.40
29433;BME280;16405;53.964;13.448;2022-11-11T04:02:23;102097.09;;;11.40;88.75
29433;BME280;16405;53.964;13.448;2022-11-11T04:05:08;102113.88;;;11.37;88.50
29433;BME280;16405;53.964;13.448;2022-11-11T04:07:52;102111.25;;;11.36;88.53
29433;BME280;16405;53.964;13.448;2022-11-11T04:10:37;102110.44;;;11.34;89.00
29433;BME280;16405;53.964;13.448;2022-11-11T04:13:04;102114.72;;;11.38;89.11
29433;BME280;16405;53.964;13.448;2022-11-11T04:15:56;102126.19;;;11.37;88.93
29433;BME280;16405;53.964;13.448;2022-11-11T04:18:37;102120.09;;;11.35;89.08
29433;BME280;16405;53.964;13.448;2022-11-11T04:21:22;102121.91;;;11.33;89.15
29433;BME280;16405;53.964;13.448;2022-11-11T04:26:57;102120.09;;;11.35;89.13
29433;BME280;16405;53.964;13.448;2022-11-11T04:29:33;102117.59;;;11.30;89.27
29433;BME280;16405;53.964;13.448;2022-11-11T04:32:10;102120.25;;;11.28;89.03
29433;BME280;16405;53.964;13.448;2022-11-11T04:35:00;102108.84;;;11.28;89.34
29433;BME280;16405;53.964;13.448;2022-11-11T04:37:34;102108.00;;;11.27;89.42
29433;BME280;16405;53.964;13.448;2022-11-11T04:40:01;102115.81;;;11.31;89.40
29433;BME280;16405;53.964;13.448;2022-11-11T04:42:50;102112.31;;;11.30;88.92
29433;BME280;16405;53.964;13.448;2022-11-11T04:45:17;102114.09;;;11.29;89.81
29433;BME280;16405;53.964;13.448;2022-11-11T04:48:10;102117.59;;;11.30;89.24
29433;BME280;16405;53.964;13.448;2022-11-11T04:50:43;102109.56;;;11.33;88.94
29433;BME280;16405;53.964;13.448;2022-11-11T04:53:14;102109.53;;;11.35;89.09
29433;BME280;16405;53.964;13.448;2022-11-11T04:55:41;102112.25;;;11.32;89.64
29433;BME280;16405;53.964;13.448;2022-11-11T04:58:33;102112.31;;;11.30;89.79
29433;BME280;16405;53.964;13.448;2022-11-11T05:01:00;102114.97;;;11.28;89.68
29433;BME280;16405;53.964;13.448;2022-11-11T05:03:26;102127.28;;;11.29;89.84
29433;BME280;16405;53.964;13.448;2022-11-11T05:08:44;102118.47;;;11.29;90.04
29433;BME280;16405;53.964;13.448;2022-11-11T05:11:38;102122.06;;;11.26;90.23
29433;BME280;16405;53.964;13.448;2022-11-11T05:14:05;102123.72;;;11.31;89.88
29433;BME280;16405;53.964;13.448;2022-11-11T05:17:01;102115.81;;;11.31;90.09
29433;BME280;16405;53.964;13.448;2022-11-11T05:19:46;102116.78;;;11.26;90.15
29433;BME280;16405;53.964;13.448;2022-11-11T05:22:42;102115.94;;;11.26;89.82
29433;BME280;16405;53.964;13.448;2022-11-11T05:25:16;102115.84;;;11.29;90.04
29433;BME280;16405;53.964;13.448;2022-11-11T05:28:11;102109.81;;;11.25;90.05
29433;BME280;16405;53.964;13.448;2022-11-11T05:30:37;102117.59;;;11.30;90.77
29433;BME280;16405;53.964;13.448;2022-11-11T05:33:05;102125.50;;;11.30;90.16
29433;BME280;16405;53.964;13.448;2022-11-11T05:35:40;102121.13;;;11.29;90.24
29433;BME280;16405;53.964;13.448;2022-11-11T05:38:06;102118.47;;;11.29;90.25
29433;BME280;16405;53.964;13.448;2022-11-11T05:40:47;102114.13;;;11.28;90.54
29433;BME280;16405;53.964;13.448;2022-11-11T05:43:13;102105.34;;;11.27;90.55
29433;BME280;16405;53.964;13.448;2022-11-11T05:45:48;102112.34;;;11.28;90.83
29433;BME280;16405;53.964;13.448;2022-11-11T05:48:13;102103.53;;;11.29;91.20
29433;BME280;16405;53.964;13.448;2022-11-11T05:50:39;102105.22;;;11.32;90.48
29433;BME280;16405;53.964;13.448;2022-11-11T05:53:07;102111.47;;;11.29;90.54
29433;BME280;16405;53.964;13.448;2022-11-11T05:55:43;102118.53;;;11.27;90.55
29433;BME280;16405;53.964;13.448;2022-11-11T05:58:09;102109.81;;;11.25;91.08
29433;BME280;16405;53.964;13.448;2022-11-11T06:00:43;102099.31;;;11.22;91.02
29433;BME280;16405;53.964;13.448;2022-11-11T06:03:09;102107.34;;;11.19;91.03
29433;BME280;16405;53.964;13.448;2022-11-11T06:05:38;102093.28;;;11.19;91.48
29433;BME280;16405;53.964;13.448;2022-11-11T06:08:12;102109.13;;;11.19;91.39
29433;BME280;16405;53.964;13.448;2022-11-11T06:10:38;102110.78;;;11.21;91.47
29433;BME280;16405;53.964;13.448;2022-11-11T06:13:04;102115.25;;;11.19;91.04
29433;BME280;16405;53.964;13.448;2022-11-11T06:15:38;102119.56;;;11.22;91.38
29433;BME280;16405;53.964;13.448;2022-11-11T06:18:06;102114.38;;;11.19;91.13
29433;BME280;16405;53.964;13.448;2022-11-11T06:20:32;102120.56;;;11.16;91.28
29433;BME280;16405;53.964;13.448;2022-11-11T06:23:07;102126.63;;;11.21;91.45
29433;BME280;16405;53.964;13.448;2022-11-11T06:25:33;102136.25;;;11.22;91.67
29433;BME280;16405;53.964;13.448;2022-11-11T06:28:18;102135.38;;;11.22;91.40
29433;BME280;16405;53.964;13.448;2022-11-11T06:30:49;102123.16;;;11.19;91.86
29433;BME280;16405;53.964;13.448;2022-11-11T06:33:16;102130.22;;;11.19;91.62
29433;BME280;16405;53.964;13.448;2022-11-11T06:35:43;102132.94;;;11.14;91.59
29433;BME280;16405;53.964;13.448;2022-11-11T06:38:09;102136.47;;;11.15;91.98
29433;BME280;16405;53.964;13.448;2022-11-11T06:40:35;102130.22;;;11.17;92.29
29433;BME280;16405;53.964;13.448;2022-11-11T06:43:11;102145.25;;;11.14;92.47
29433;BME280;16405;53.964;13.448;2022-11-11T06:45:36;102144.31;;;11.16;92.29
29433;BME280;16405;53.964;13.448;2022-11-11T06:48:03;102139.84;;;11.18;92.08
29433;BME280;16405;53.964;13.448;2022-11-11T06:50:37;102157.50;;;11.16;92.32
29433;BME280;16405;53.964;13.448;2022-11-11T06:53:29;102165.41;;;11.16;92.32
29433;BME280;16405;53.964;13.448;2022-11-11T06:55:57;102162.00;;;11.13;92.83
29433;BME280;16405;53.964;13.448;2022-11-11T06:58:24;102164.63;;;11.13;92.65
29433;BME280;16405;53.964;13.448;2022-11-11T07:00:50;102162.84;;;11.13;92.54
29433;BME280;16405;53.964;13.448;2022-11-11T07:03:22;102164.56;;;11.14;92.46
29433;BME280;16405;53.964;13.448;2022-11-11T07:05:50;102172.53;;;11.13;92.29
29433;BME280;16405;53.964;13.448;2022-11-11T07:08:17;102170.84;;;11.10;93.01
29433;BME280;16405;53.964;13.448;2022-11-11T07:10:49;102170.03;;;11.08;92.93
29433;BME280;16405;53.964;13.448;2022-11-11T07:13:15;102173.53;;;11.08;92.56
29433;BME280;16405;53.964;13.448;2022-11-11T07:15:42;102167.31;;;11.11;92.59
29433;BME280;16405;53.964;13.448;2022-11-11T07:18:09;102165.53;;;11.12;92.70
29433;BME280;16405;53.964;13.448;2022-11-11T07:20:36;102171.59;;;11.15;92.32
29433;BME280;16405;53.964;13.448;2022-11-11T07:23:06;102173.41;;;11.13;92.20
29433;BME280;16405;53.964;13.448;2022-11-11T07:25:32;102177.81;;;11.13;92.53
29433;BME280;16405;53.964;13.448;2022-11-11T07:27:59;102182.13;;;11.15;92.14
29433;BME280;16405;53.964;13.448;2022-11-11T07:30:25;102181.44;;;11.08;92.36
29433;BME280;16405;53.964;13.448;2022-11-11T07:33:01;102178.78;;;11.08;92.91
29433;BME280;16405;53.964;13.448;2022-11-11T07:35:26;102181.41;;;11.10;92.08
29433;BME280;16405;53.964;13.448;2022-11-11T07:37:55;102183.09;;;11.13;92.40
29433;BME280;16405;53.964;13.448;2022-11-11T07:40:30;102186.59;;;11.12;92.57
29433;BME280;16405;53.964;13.448;2022-11-11T07:42:56;102187.47;;;11.12;92.66
29433;BME280;16405;53.964;13.448;2022-11-11T07:45:32;102193.63;;;11.13;92.45
29433;BME280;16405;53.964;13.448;2022-11-11T07:47:59;102205.03;;;11.13;92.83
29433;BME280;16405;53.964;13.448;2022-11-11T07:50:24;102205.97;;;11.11;92.61
29433;BME280;16405;53.964;13.448;2022-11-11T07:52:50;102209.44;;;11.13;92.42
29433;BME280;16405;53.964;13.448;2022-11-11T07:55:22;102195.38;;;11.12;92.71
29433;BME280;16405;53.964;13.448;2022-11-11T07:57:51;102208.53;;;11.14;92.89
29433;BME280;16405;53.964;13.448;2022-11-11T08:00:23;102211.13;;;11.15;92.35
29433;BME280;16405;53.964;13.448;2022-11-11T08:02:51;102206.75;;;11.14;92.81
29433;BME280;16405;53.964;13.448;2022-11-11T08:05:17;102211.13;;;11.15;92.98
29433;BME280;16405;53.964;13.448;2022-11-11T08:07:43;102210.09;;;11.21;92.58
29433;BME280;16405;53.964;13.448;2022-11-11T08:10:10;102221.41;;;11.26;92.18
29433;BME280;16405;53.964;13.448;2022-11-11T08:12:53;102226.69;;;11.26;91.96
29433;BME280;16405;53.964;13.448;2022-11-11T08:15:54;102235.38;;;11.29;92.06
29433;BME280;16405;53.964;13.448;2022-11-11T08:18:20;102230.22;;;11.25;92.81
29433;BME280;16405;53.964;13.448;2022-11-11T08:20:46;102234.50;;;11.29;92.09
29433;BME280;16405;53.964;13.448;2022-11-11T08:23:14;102241.41;;;11.35;92.16
29433;BME280;16405;53.964;13.448;2022-11-11T08:25:48;102233.53;;;11.33;93.01
29433;BME280;16405;53.964;13.448;2022-11-11T08:28:13;102242.28;;;11.34;92.89
29433;BME280;16405;53.964;13.448;2022-11-11T08:30:39;102243.22;;;11.33;92.56
29433;BME280;16405;53.964;13.448;2022-11-11T08:33:05;102249.38;;;11.32;92.93
29433;BME280;16405;53.964;13.448;2022-11-11T08:35:37;102257.19;;;11.36;92.74
29433;BME280;16405;53.964;13.448;2022-11-11T08:38:02;102245.75;;;11.36;92.61
29433;BME280;16405;53.964;13.448;2022-11-11T08:40:28;102247.41;;;11.40;92.39
29433;BME280;16405;53.964;13.448;2022-11-11T08:42:57;102247.34;;;11.43;92.57
29433;BME280;16405;53.964;13.448;2022-11-11T08:45:27;102254.28;;;11.47;92.28
29433;BME280;16405;53.964;13.448;2022-11-11T08:47:55;102254.34;;;11.44;92.13
29433;BME280;16405;53.964;13.448;2022-11-11T08:50:21;102249.06;;;11.44;92.47
29433;BME280;16405;53.964;13.448;2022-11-11T08:52:51;102262.22;;;11.45;92.05
29433;BME280;16405;53.964;13.448;2022-11-11T08:55:24;102263.06;;;11.47;92.19
29433;BME280;16405;53.964;13.448;2022-11-11T08:58:06;102261.28;;;11.48;92.23
29433;BME280;16405;53.964;13.448;2022-11-11T09:00:33;102262.09;;;11.50;92.32
29433;BME280;16405;53.964;13.448;2022-11-11T09:03:24;102261.09;;;11.56;91.84
29433;BME280;16405;53.964;13.448;2022-11-11T09:05:52;102258.34;;;11.59;91.28
29433;BME280;16405;53.964;13.448;2022-11-11T09:08:18;102247.78;;;11.60;92.08
29433;BME280;16405;53.964;13.448;2022-11-11T09:11:07;102259.03;;;11.67;91.33
29433;BME280;16405;53.964;13.448;2022-11-11T09:13:37;102254.59;;;11.67;91.54
29433;BME280;16405;53.964;13.448;2022-11-11T09:16:03;102259.84;;;11.69;91.28
29433;BME280;16405;53.964;13.448;2022-11-11T09:18:41;102264.16;;;11.73;91.10
29433;BME280;16405;53.964;13.448;2022-11-11T09:21:07;102263.22;;;11.74;90.78
29433;BME280;16405;53.964;13.448;2022-11-11T09:23:42;102270.13;;;11.80;90.63
29433;BME280;16405;53.964;13.448;2022-11-11T09:26:09;102272.69;;;11.81;90.66
29433;BME280;16405;53.964;13.448;2022-11-11T09:28:43;102282.25;;;11.85;90.85
29433;BME280;16405;53.964;13.448;2022-11-11T09:31:12;102279.59;;;11.88;90.83
29433;BME280;16405;53.964;13.448;2022-11-11T09:33:50;102283.00;;;11.92;90.69
29433;BME280;16405;53.964;13.448;2022-11-11T09:36:19;102281.25;;;11.93;90.59
29433;BME280;16405;53.964;13.448;2022-11-11T09:39:08;102287.28;;;11.96;90.48
29433;BME280;16405;53.964;13.448;2022-11-11T09:42:09;102295.16;;;11.98;90.23
29433;BME280;16405;53.964;13.448;2022-11-11T09:45:08;102294.22;;;12.00;90.25
29433;BME280;16405;53.964;13.448;2022-11-11T09:48:04;102302.97;;;12.02;89.95
29433;BME280;16405;53.964;13.448;2022-11-11T09:50:38;102300.31;;;12.02;90.11
29433;BME280;16405;53.964;13.448;2022-11-11T09:53:55;102309.91;;;12.05;90.44
29433;BME280;16405;53.964;13.448;2022-11-11T09:56:31;102308.31;;;12.01;90.06
29433;BME280;16405;53.964;13.448;2022-11-11T10:02:54;102322.81;;;12.16;89.85
29433;BME280;16405;53.964;13.448;2022-11-11T10:08:38;102319.16;;;12.21;89.53
29433;BME280;16405;53.964;13.448;2022-11-11T10:14:34;102309.38;;;12.25;89.36
29433;BME280;16405;53.964;13.448;2022-11-11T10:17:36;102316.34;;;12.27;88.87
29433;BME280;16405;53.964;13.448;2022-11-11T10:20:13;102316.19;;;12.34;88.70
29433;BME280;16405;53.964;13.448;2022-11-11T10:22:49;102318.91;;;12.30;88.63
29433;BME280;16405;53.964;13.448;2022-11-11T10:25:24;102311.72;;;12.36;88.94
29433;BME280;16405;53.964;13.448;2022-11-11T10:27:59;102316.72;;;12.45;88.66
29433;BME280;16405;53.964;13.448;2022-11-11T10:30:32;102320.06;;;12.51;88.13
29433;BME280;16405;53.964;13.448;2022-11-11T10:33:18;102319.78;;;12.61;88.25
29433;BME280;16405;53.964;13.448;2022-11-11T10:35:47;102327.63;;;12.64;88.00
29433;BME280;16405;53.964;13.448;2022-11-11T10:38:45;102334.63;;;12.65;87.07
29433;BME280;16405;53.964;13.448;2022-11-11T10:41:50;102345.13;;;12.68;87.52
29433;BME280;16405;53.964;13.448;2022-11-11T10:44:31;102341.47;;;12.72;87.85
29433;BME280;16405;53.964;13.448;2022-11-11T10:50:15;102350.22;;;12.74;87.36
29433;BME280;16405;53.964;13.448;2022-11-11T10:53:24;102338.75;;;12.75;87.44
29433;BME280;16405;53.964;13.448;2022-11-11T10:59:20;102345.06;;;12.69;87.66
29433;BME280;16405;53.964;13.448;2022-11-11T11:05:49;102350.66;;;12.59;88.18
29433;BME280;16405;53.964;13.448;2022-11-11T11:08:26;102357.69;;;12.60;88.39
29433;BME280;16405;53.964;13.448;2022-11-11T11:11:13;102355.91;;;12.60;87.88
29433;BME280;16405;53.964;13.448;2022-11-11T11:14:14;102353.53;;;12.51;88.16
29433;BME280;16405;53.964;13.448;2022-11-11T11:16:51;102357.88;;;12.54;88.70
29433;BME280;16405;53.964;13.448;2022-11-11T11:19:27;102357.88;;;12.54;88.65
29433;BME280;16405;53.964;13.448;2022-11-11T11:22:01;102363.25;;;12.50;89.00
29433;BME280;16405;53.964;13.448;2022-11-11T11:24:31;102358.69;;;12.56;89.54
29433;BME280;16405;53.964;13.448;2022-11-11T11:27:00;102356.84;;;12.59;89.24
29433;BME280;16405;53.964;13.448;2022-11-11T11:29:33;102360.50;;;12.54;89.30
29433;BME280;16405;53.964;13.448;2022-11-11T11:32:29;102355.03;;;12.61;89.03
29433;BME280;16405;53.964;13.448;2022-11-11T11:34:56;102359.50;;;12.58;89.46
29433;BME280;16405;53.964;13.448;2022-11-11T11:37:33;102357.59;;;12.63;88.84
29433;BME280;16405;53.964;13.448;2022-11-11T11:40:11;102356.84;;;12.59;89.01
29433;BME280;16405;53.964;13.448;2022-11-11T11:42:38;102362.84;;;12.64;89.27
29433;BME280;16405;53.964;13.448;2022-11-11T11:45:27;102361.84;;;12.68;88.78
29433;BME280;16405;53.964;13.448;2022-11-11T11:51:26;102371.50;;;12.69;88.96
29433;BME280;16405;53.964;13.448;2022-11-11T11:54:09;102366.22;;;12.69;89.26
29433;BME280;16405;53.964;13.448;2022-11-11T11:56:47;102370.63;;;12.69;89.66
29433;BME280;16405;53.964;13.448;2022-11-11T12:01:58;102370.06;;;12.59;89.78
29433;BME280;16405;53.964;13.448;2022-11-11T12:30:23;102364.41;;;12.40;91.80
29433;BME280;16405;53.964;13.448;2022-11-11T12:37:03;102375.97;;;12.36;92.48
29433;BME280;16405;53.964;13.448;2022-11-11T12:42:25;102369.88;;;12.34;92.97
29433;BME280;16405;53.964;13.448;2022-11-11T12:56:52;102386.81;;;12.27;93.03
29433;BME280;16405;53.964;13.448;2022-11-11T13:08:46;102379.88;;;12.23;93.06
29433;BME280;16405;53.964;13.448;2022-11-11T13:11:52;102371.16;;;12.19;93.24
29433;BME280;16405;53.964;13.448;2022-11-11T13:17:17;102378.22;;;12.19;93.21
29433;BME280;16405;53.964;13.448;2022-11-11T13:20:12;102378.22;;;12.19;92.81
29433;BME280;16405;53.964;13.448;2022-11-11T13:22:41;102377.34;;;12.18;93.61
29433;BME280;16405;53.964;13.448;2022-11-11T13:25:13;102372.09;;;12.17;93.34
29433;BME280;16405;53.964;13.448;2022-11-11T13:27:47;102365.13;;;12.14;93.37
29433;BME280;16405;53.964;13.448;2022-11-11T13:33:19;102375.00;;;12.07;93.78
29433;BME280;16405;53.964;13.448;2022-11-11T13:35:53;102389.03;;;12.09;94.33
29433;BME280;16405;53.964;13.448;2022-11-11T13:38:33;102390.75;;;12.10;93.74
29433;BME280;16405;53.964;13.448;2022-11-11T13:41:05;102387.28;;;12.08;93.82
29433;BME280;16405;53.964;13.448;2022-11-11T13:43:45;102391.78;;;12.05;94.33
29433;BME280;16405;53.964;13.448;2022-11-11T13:46:38;102387.41;;;12.04;93.88
29433;BME280;16405;53.964;13.448;2022-11-11T13:49:18;102376.97;;;11.99;94.35
29433;BME280;16405;53.964;13.448;2022-11-11T13:51:46;102382.31;;;11.96;94.25
29433;BME280;16405;53.964;13.448;2022-11-11T13:54:30;102389.41;;;11.94;94.96
29433;BME280;16405;53.964;13.448;2022-11-11T13:57:07;102379.78;;;11.92;95.02
29433;BME280;16405;53.964;13.448;2022-11-11T13:59:40;102378.97;;;11.89;95.12
29433;BME280;16405;53.964;13.448;2022-11-11T14:12:51;102390.44;;;11.87;96.07
29433;BME280;16405;53.964;13.448;2022-11-11T14:15:47;102401.16;;;11.81;95.96
29433;BME280;16405;53.964;13.448;2022-11-11T14:20:48;102397.81;;;11.74;97.11
29433;BME280;16405;53.964;13.448;2022-11-11T14:34:13;102413.63;;;11.74;96.51
29433;BME280;16405;53.964;13.448;2022-11-11T14:44:51;102417.41;;;11.64;97.06
29433;BME280;16405;53.964;13.448;2022-11-11T14:47:22;102426.22;;;11.63;96.81
29433;BME280;16405;53.964;13.448;2022-11-11T14:49:55;102429.75;;;11.62;96.47
29433;BME280;16405;53.964;13.448;2022-11-11T14:52:43;102429.75;;;11.62;96.75
29433;BME280;16405;53.964;13.448;2022-11-11T14:57:48;102434.13;;;11.64;95.99
29433;BME280;16405;53.964;13.448;2022-11-11T15:00:20;102438.50;;;11.64;96.10
29433;BME280;16405;53.964;13.448;2022-11-11T15:03:14;102439.44;;;11.61;95.62
29433;BME280;16405;53.964;13.448;2022-11-11T15:05:54;102441.22;;;11.61;95.43
29433;BME280;16405;53.964;13.448;2022-11-11T15:15:13;102444.19;;;11.47;95.07
29433;BME280;16405;53.964;13.448;2022-11-11T15:18:39;102447.72;;;11.46;95.56
29433;BME280;16405;53.964;13.448;2022-11-11T15:21:15;102446.91;;;11.42;95.26
29433;BME280;16405;53.964;13.448;2022-11-11T15:30:22;102446.13;;;11.40;95.78
29433;BME280;16405;53.964;13.448;2022-11-11T15:38:52;102455.84;;;11.37;95.11
29433;BME280;16405;53.964;13.448;2022-11-11T15:41:25;102463.75;;;11.38;95.26
29433;BME280;16405;53.964;13.448;2022-11-11T15:43:59;102465.47;;;11.38;95.03
29433;BME280;16405;53.964;13.448;2022-11-11T15:46:39;102461.09;;;11.38;96.05
29433;BME280;16405;53.964;13.448;2022-11-11T15:49:35;102465.53;;;11.36;95.64
29433;BME280;16405;53.964;13.448;2022-11-11T15:52:00;102469.00;;;11.38;94.96
29433;BME280;16405;53.964;13.448;2022-11-11T15:54:26;102471.69;;;11.37;95.45